Time;durP1;ratioP1;P1;durP2;ratioP2;P2;SDS_P1;SDS_P2;PMS_P1;PMS_P2;Temp;Humidity;BMP_temperature;BMP_pressure;BME280_temperature;BME280_humidity;BME280_pressure;Samples;Min_cycle;Max_cycle;Signal;HPM_P1;HPM_P2
2022/06/12 00:00:23;;;;;;;1.65;0.82;;;;;;;;;;7394384;19;20492;-84
2022/06/12 00:02:48;;;;;;;2.10;0.88;;;;;;;;;;7397616;19;20007;-83
2022/06/12 00:05:17;;;;;;;5.50;1.10;;;;;;;;;;7398476;19;20017;-85
2022/06/12 00:07:43;;;;;;;0.95;0.80;;;;;;;;;;7398588;19;19999;-84
2022/06/12 00:10:10;;;;;;;1.33;1.15;;;;;;;;;;7398847;19;20017;-83
2022/06/12 00:12:37;;;;;;;1.08;0.98;;;;;;;;;;7399288;19;20014;-83
2022/06/12 00:15:03;;;;;;;1.48;1.10;;;;;;;;;;7399203;19;20015;-86
2022/06/12 00:17:29;;;;;;;0.70;0.70;;;;;;;;;;7401988;19;20026;-84
2022/06/12 00:19:54;;;;;;;3.25;1.00;;;;;;;;;;7394754;19;19999;-83
2022/06/12 00:22:19;;;;;;;3.33;1.00;;;;;;;;;;7395409;19;20016;-84
2022/06/12 00:24:45;;;;;;;0.95;0.70;;;;;;;;;;7399293;19;20353;-83
2022/06/12 00:27:11;;;;;;;1.30;1.05;;;;;;;;;;7398887;19;20017;-84
2022/06/12 00:29:39;;;;;;;0.98;0.98;;;;;;;;;;7398282;19;20410;-84
2022/06/12 00:32:08;;;;;;;1.33;1.05;;;;;;;;;;7395370;19;20026;-82
2022/06/12 00:34:44;;;;;;;1.17;1.13;;;;;;;;;;7396387;19;20099;-84
2022/06/12 00:37:11;;;;;;;1.40;1.17;;;;;;;;;;7397480;19;20007;-83
2022/06/12 00:39:38;;;;;;;3.03;1.55;;;;;;;;;;7399866;19;20033;-83
2022/06/12 00:42:04;;;;;;;1.30;1.20;;;;;;;;;;7398362;19;20014;-82
2022/06/12 00:44:36;;;;;;;2.25;0.90;;;;;;;;;;7399008;19;20009;-83
2022/06/12 00:47:15;;;;;;;0.88;0.88;;;;;;;;;;7397246;19;20354;-84
2022/06/12 00:49:46;;;;;;;1.95;1.25;;;;;;;;;;7394123;19;20001;-83
2022/06/12 00:52:30;;;;;;;2.58;1.67;;;;;;;;;;7399548;19;20002;-83
2022/06/12 00:55:01;;;;;;;8.27;1.35;;;;;;;;;;7398261;19;20032;-85
2022/06/12 00:57:28;;;;;;;3.42;1.33;;;;;;;;;;7396923;19;19995;-83
2022/06/12 00:59:57;;;;;;;1.30;1.20;;;;;;;;;;7399566;19;20038;-85
2022/06/12 01:02:29;;;;;;;2.45;1.10;;;;;;;;;;7399776;19;20346;-85
2022/06/12 01:07:47;;;;;;;1.23;1.10;;;;;;;;;;7397035;19;19997;-84
2022/06/12 01:10:15;;;;;;;2.90;1.38;;;;;;;;;;7392249;19;20121;-85
2022/06/12 01:12:48;;;;;;;3.17;1.42;;;;;;;;;;7396737;19;20054;-83
2022/06/12 01:15:20;;;;;;;0.90;0.80;;;;;;;;;;7396983;19;20008;-84
2022/06/12 01:17:47;;;;;;;1.33;1.23;;;;;;;;;;7396811;19;20605;-85
2022/06/12 01:20:17;;;;;;;1.65;1.10;;;;;;;;;;7394001;19;20323;-84
2022/06/12 01:23:12;;;;;;;1.17;1.00;;;;;;;;;;7396893;19;20074;-83
2022/06/12 01:25:52;;;;;;;2.85;1.10;;;;;;;;;;7396153;19;20003;-84
2022/06/12 01:28:36;;;;;;;1.20;1.10;;;;;;;;;;7394824;19;20010;-84
2022/06/12 01:31:21;;;;;;;2.78;1.10;;;;;;;;;;7391664;19;20114;-85
2022/06/12 01:33:59;;;;;;;0.80;0.73;;;;;;;;;;7395734;19;20014;-84
2022/06/12 01:36:45;;;;;;;0.80;0.80;;;;;;;;;;7393926;19;20422;-83
2022/06/12 01:39:21;;;;;;;3.78;1.25;;;;;;;;;;7395719;19;20005;-83
2022/06/12 01:42:14;;;;;;;0.85;0.85;;;;;;;;;;7397511;19;20003;-83
2022/06/12 01:44:51;;;;;;;1.10;0.88;;;;;;;;;;7392534;19;19999;-84
2022/06/12 01:47:56;;;;;;;1.00;0.90;;;;;;;;;;7392971;19;20003;-83
2022/06/12 01:50:32;;;;;;;3.35;1.13;;;;;;;;;;7392456;19;20010;-84
2022/06/12 01:53:30;;;;;;;3.60;1.40;;;;;;;;;;7392709;19;20503;-83
2022/06/12 01:56:07;;;;;;;5.63;1.20;;;;;;;;;;7390537;19;20001;-83
2022/06/12 01:58:37;;;;;;;2.15;1.13;;;;;;;;;;7390118;19;20002;-82
2022/06/12 02:01:10;;;;;;;1.33;1.23;;;;;;;;;;7385666;19;19998;-84
2022/06/12 02:03:49;;;;;;;1.20;1.10;;;;;;;;;;7393144;19;20017;-82
2022/06/12 02:06:22;;;;;;;1.23;0.75;;;;;;;;;;7391007;19;20105;-82
2022/06/12 02:09:17;;;;;;;4.03;1.00;;;;;;;;;;7391207;19;20026;-83
2022/06/12 02:14:39;;;;;;;3.30;1.08;;;;;;;;;;7392300;19;20006;-83
2022/06/12 02:17:10;;;;;;;1.40;1.25;;;;;;;;;;7393306;19;20006;-84
2022/06/12 02:19:41;;;;;;;2.88;1.23;;;;;;;;;;7387721;19;19999;-82
2022/06/12 02:22:16;;;;;;;1.40;1.10;;;;;;;;;;7392755;19;19998;-83
2022/06/12 02:25:04;;;;;;;2.65;1.40;;;;;;;;;;7392329;19;20015;-82
2022/06/12 02:27:35;;;;;;;1.70;1.40;;;;;;;;;;7394224;19;20409;-82
2022/06/12 02:30:09;;;;;;;2.17;1.10;;;;;;;;;;7386253;19;19999;-84
2022/06/12 02:32:40;;;;;;;3.80;1.30;;;;;;;;;;7392714;19;20106;-82
2022/06/12 02:35:18;;;;;;;1.80;1.10;;;;;;;;;;7386759;19;20489;-82
2022/06/12 02:37:55;;;;;;;1.00;0.88;;;;;;;;;;7388509;19;20002;-83
2022/06/12 02:40:29;;;;;;;0.98;0.90;;;;;;;;;;7389855;19;20336;-81
2022/06/12 02:42:57;;;;;;;1.00;0.85;;;;;;;;;;7386849;19;20507;-82
2022/06/12 02:45:38;;;;;;;1.70;1.20;;;;;;;;;;7388996;19;19999;-82
2022/06/12 02:48:05;;;;;;;1.42;1.25;;;;;;;;;;7391128;19;20395;-82
2022/06/12 02:50:39;;;;;;;1.25;1.15;;;;;;;;;;7386790;19;20477;-82
2022/06/12 02:53:23;;;;;;;2.95;1.48;;;;;;;;;;7389325;19;20017;-82
2022/06/12 02:55:54;;;;;;;2.95;1.38;;;;;;;;;;7388608;19;20026;-82
2022/06/12 02:58:38;;;;;;;2.58;1.15;;;;;;;;;;7392007;19;20350;-84
2022/06/12 03:01:11;;;;;;;1.10;1.00;;;;;;;;;;7389241;19;20026;-82
2022/06/12 03:03:55;;;;;;;1.10;1.00;;;;;;;;;;7389669;19;20011;-83
2022/06/12 03:06:26;;;;;;;2.55;1.17;;;;;;;;;;7386375;19;20018;-84
2022/06/12 03:08:52;;;;;;;3.22;1.33;;;;;;;;;;7389615;19;20010;-82
2022/06/12 03:11:21;;;;;;;2.22;1.48;;;;;;;;;;7391499;19;20011;-83
2022/06/12 03:13:48;;;;;;;3.35;1.80;;;;;;;;;;7393815;19;20054;-85
2022/06/12 03:16:27;;;;;;;1.90;1.27;;;;;;;;;;7398473;19;20054;-81
2022/06/12 03:18:56;;;;;;;1.35;1.10;;;;;;;;;;7395148;19;20011;-86
2022/06/12 03:21:43;;;;;;;1.35;1.10;;;;;;;;;;7396425;19;20434;-82
2022/06/12 03:24:14;;;;;;;3.10;1.50;;;;;;;;;;7395429;19;20052;-82
2022/06/12 03:26:49;;;;;;;2.05;1.40;;;;;;;;;;7395655;19;20029;-82
2022/06/12 03:29:26;;;;;;;2.17;1.27;;;;;;;;;;7397652;19;20041;-83
2022/06/12 03:32:08;;;;;;;1.13;1.02;;;;;;;;;;7395314;19;20010;-84
2022/06/12 03:34:50;;;;;;;1.40;1.30;;;;;;;;;;7396070;19;20018;-82
2022/06/12 03:37:19;;;;;;;1.52;1.40;;;;;;;;;;7398316;19;20006;-82
2022/06/12 03:40:15;;;;;;;1.67;1.10;;;;;;;;;;7394170;19;20334;-82
2022/06/12 03:42:50;;;;;;;3.10;1.20;;;;;;;;;;7391763;19;20003;-82
2022/06/12 03:45:23;;;;;;;2.72;1.40;;;;;;;;;;7397243;19;20018;-83
2022/06/12 03:48:00;;;;;;;0.70;0.70;;;;;;;;;;7397598;19;19999;-83
2022/06/12 03:50:33;;;;;;;4.43;2.22;;;;;;;;;;7395406;19;20073;-82
2022/06/12 03:53:44;;;;;;;6.85;1.38;;;;;;;;;;7395300;19;20030;-82
2022/06/12 03:59:15;;;;;;;1.55;1.30;;;;;;;;;;7393848;19;20005;-82
2022/06/12 04:01:43;;;;;;;3.65;1.33;;;;;;;;;;7392369;19;20410;-82
2022/06/12 04:04:08;;;;;;;2.05;1.50;;;;;;;;;;7394825;19;20011;-82
2022/06/12 04:06:35;;;;;;;1.73;1.13;;;;;;;;;;7398047;19;20167;-83
2022/06/12 04:09:05;;;;;;;3.88;1.38;;;;;;;;;;7392523;19;20063;-82
2022/06/12 04:11:33;;;;;;;1.92;1.20;;;;;;;;;;7389637;19;19994;-82
2022/06/12 04:14:01;;;;;;;3.88;1.30;;;;;;;;;;7392531;19;19991;-82
2022/06/12 04:16:47;;;;;;;2.83;1.00;;;;;;;;;;7396784;19;20015;-82
2022/06/12 04:19:17;;;;;;;2.05;0.90;;;;;;;;;;7393750;19;20090;-83
2022/06/12 04:21:50;;;;;;;1.85;1.08;;;;;;;;;;7393506;19;20013;-83
2022/06/12 04:24:39;;;;;;;3.35;1.17;;;;;;;;;;7390547;19;20003;-85
2022/06/12 04:27:22;;;;;;;1.27;1.17;;;;;;;;;;7394004;19;20575;-82
2022/06/12 04:29:53;;;;;;;1.50;1.20;;;;;;;;;;7396188;19;20517;-84
2022/06/12 04:32:19;;;;;;;1.52;0.90;;;;;;;;;;7391561;19;20002;-83
2022/06/12 04:34:45;;;;;;;1.95;1.15;;;;;;;;;;7393273;19;20010;-84
2022/06/12 04:37:11;;;;;;;1.67;1.40;;;;;;;;;;7396198;19;20006;-83
2022/06/12 04:39:36;;;;;;;4.45;1.30;;;;;;;;;;7396186;19;19998;-84
2022/06/12 04:42:04;;;;;;;1.25;1.10;;;;;;;;;;7393315;19;20002;-84
2022/06/12 04:44:30;;;;;;;1.77;1.15;;;;;;;;;;7396902;19;20019;-83
2022/06/12 04:46:58;;;;;;;1.77;1.27;;;;;;;;;;7396506;19;20018;-82
2022/06/12 04:49:49;;;;;;;1.40;1.30;;;;;;;;;;7396035;19;20513;-83
2022/06/12 04:52:15;;;;;;;2.13;1.40;;;;;;;;;;7391109;19;20022;-84
2022/06/12 04:54:42;;;;;;;1.73;1.58;;;;;;;;;;7391937;19;19990;-82
2022/06/12 04:57:10;;;;;;;1.08;1.00;;;;;;;;;;7391421;19;19991;-83
2022/06/12 04:59:35;;;;;;;1.95;1.50;;;;;;;;;;7395868;19;20010;-84
2022/06/12 05:02:02;;;;;;;5.85;1.48;;;;;;;;;;7389947;19;20149;-84
2022/06/12 05:04:28;;;;;;;3.38;1.20;;;;;;;;;;7390430;19;20006;-83
2022/06/12 05:06:55;;;;;;;1.83;1.58;;;;;;;;;;7389948;19;20006;-83
2022/06/12 05:09:24;;;;;;;1.15;1.05;;;;;;;;;;7393896;19;20732;-84
2022/06/12 05:11:50;;;;;;;2.35;1.80;;;;;;;;;;7390539;19;20099;-83
2022/06/12 05:14:16;;;;;;;3.05;1.60;;;;;;;;;;7392360;19;20010;-83
2022/06/12 05:16:52;;;;;;;1.77;1.60;;;;;;;;;;7392211;19;20340;-84
2022/06/12 05:19:23;;;;;;;4.28;1.58;;;;;;;;;;7389552;19;19994;-83
2022/06/12 05:21:48;;;;;;;3.10;1.60;;;;;;;;;;7389782;19;20018;-84
2022/06/12 05:24:15;;;;;;;2.28;1.50;;;;;;;;;;7392076;19;20006;-83
2022/06/12 05:26:45;;;;;;;2.60;1.58;;;;;;;;;;7391887;19;20018;-83
2022/06/12 05:29:21;;;;;;;2.85;1.90;;;;;;;;;;7391536;19;20138;-83
2022/06/12 05:31:46;;;;;;;2.28;1.70;;;;;;;;;;7393581;19;19994;-83
2022/06/12 05:34:13;;;;;;;1.33;1.23;;;;;;;;;;7390301;19;20039;-85
2022/06/12 05:36:39;;;;;;;3.00;1.33;;;;;;;;;;7392905;19;20043;-83
2022/06/12 05:39:04;;;;;;;1.73;1.45;;;;;;;;;;7388302;19;20003;-83
2022/06/12 05:41:30;;;;;;;1.55;1.27;;;;;;;;;;7391455;19;20043;-83
2022/06/12 05:43:55;;;;;;;2.30;1.30;;;;;;;;;;7391363;19;20741;-83
2022/06/12 05:46:21;;;;;;;2.03;1.40;;;;;;;;;;7390366;19;20111;-84
2022/06/12 05:48:46;;;;;;;1.67;1.50;;;;;;;;;;7390632;19;20010;-83
2022/06/12 05:51:15;;;;;;;1.83;1.40;;;;;;;;;;7388009;19;20391;-84
2022/06/12 05:53:40;;;;;;;1.52;1.42;;;;;;;;;;7390861;19;19998;-85
2022/06/12 05:56:14;;;;;;;2.13;1.48;;;;;;;;;;7388623;19;20102;-82
2022/06/12 05:58:41;;;;;;;1.63;1.15;;;;;;;;;;7391878;19;19999;-83
2022/06/12 06:01:09;;;;;;;2.35;1.50;;;;;;;;;;7390738;19;20098;-84
2022/06/12 06:03:35;;;;;;;2.25;1.27;;;;;;;;;;7391242;19;20018;-83
2022/06/12 06:06:00;;;;;;;3.75;1.45;;;;;;;;;;7390904;19;20006;-84
2022/06/12 06:08:26;;;;;;;2.50;1.48;;;;;;;;;;7387168;19;20070;-83
2022/06/12 06:10:52;;;;;;;1.60;1.33;;;;;;;;;;7389425;19;20033;-84
2022/06/12 06:13:17;;;;;;;1.52;1.42;;;;;;;;;;7390734;19;19999;-84
2022/06/12 06:15:45;;;;;;;1.58;1.48;;;;;;;;;;7388340;19;20575;-83
2022/06/12 06:18:11;;;;;;;1.95;1.52;;;;;;;;;;7391760;19;19999;-83
2022/06/12 06:20:38;;;;;;;1.58;1.48;;;;;;;;;;7388286;19;20014;-84
2022/06/12 06:23:05;;;;;;;1.80;1.70;;;;;;;;;;7389169;19;20010;-83
2022/06/12 06:25:31;;;;;;;3.20;1.38;;;;;;;;;;7390398;19;20002;-84
2022/06/12 06:27:57;;;;;;;1.77;1.23;;;;;;;;;;7388260;19;20067;-84
2022/06/12 06:30:24;;;;;;;2.17;1.45;;;;;;;;;;7385806;19;20070;-83
2022/06/12 06:32:50;;;;;;;4.65;1.20;;;;;;;;;;7389794;19;19998;-85
2022/06/12 06:35:17;;;;;;;1.38;1.23;;;;;;;;;;7389425;19;20010;-85
2022/06/12 06:37:43;;;;;;;1.52;1.30;;;;;;;;;;7388111;19;20013;-84
2022/06/12 06:40:10;;;;;;;1.40;1.30;;;;;;;;;;7389252;19;20049;-84
2022/06/12 06:42:36;;;;;;;1.42;1.33;;;;;;;;;;7389708;19;20010;-86
2022/06/12 06:47:47;;;;;;;1.63;1.33;;;;;;;;;;7390934;19;20010;-83
2022/06/12 06:50:14;;;;;;;2.60;1.20;;;;;;;;;;7385969;19;19998;-84
2022/06/12 06:52:39;;;;;;;1.70;1.30;;;;;;;;;;7390193;19;20528;-83
2022/06/12 06:55:06;;;;;;;3.40;1.50;;;;;;;;;;7389776;19;20007;-83
2022/06/12 06:57:35;;;;;;;1.60;1.40;;;;;;;;;;7388605;19;20336;-83
2022/06/12 07:00:00;;;;;;;2.25;1.10;;;;;;;;;;7384888;19;20003;-83
2022/06/12 07:02:26;;;;;;;2.03;1.20;;;;;;;;;;7386732;19;21014;-83
2022/06/12 07:04:51;;;;;;;1.38;1.17;;;;;;;;;;7387104;19;20370;-85
2022/06/12 07:07:17;;;;;;;2.53;1.33;;;;;;;;;;7384339;19;19995;-85
2022/06/12 07:09:42;;;;;;;1.42;1.33;;;;;;;;;;7384193;19;20002;-83
2022/06/12 07:12:08;;;;;;;1.40;1.30;;;;;;;;;;7384548;19;19999;-84
2022/06/12 07:14:34;;;;;;;1.50;1.40;;;;;;;;;;7386930;19;20500;-83
2022/06/12 07:17:00;;;;;;;3.15;1.10;;;;;;;;;;7385987;19;20006;-86
2022/06/12 07:19:27;;;;;;;1.25;1.08;;;;;;;;;;7388399;19;20012;-83
2022/06/12 07:21:52;;;;;;;1.20;1.10;;;;;;;;;;7389639;19;20021;-84
2022/06/12 07:24:18;;;;;;;1.08;0.98;;;;;;;;;;7387472;19;20074;-83
2022/06/12 07:26:45;;;;;;;2.38;1.10;;;;;;;;;;7387561;19;20485;-82
2022/06/12 07:29:13;;;;;;;1.15;1.05;;;;;;;;;;7383914;19;20013;-83
2022/06/12 07:31:39;;;;;;;1.27;1.08;;;;;;;;;;7386160;19;20014;-87
2022/06/12 07:34:04;;;;;;;1.20;1.10;;;;;;;;;;7384925;19;20017;-86
2022/06/12 07:36:30;;;;;;;1.05;0.98;;;;;;;;;;7387363;19;20446;-86
2022/06/12 07:38:56;;;;;;;2.95;1.30;;;;;;;;;;7386834;19;20024;-83
2022/06/12 07:41:21;;;;;;;3.30;1.40;;;;;;;;;;7384879;19;20005;-83
2022/06/12 07:43:48;;;;;;;1.77;1.20;;;;;;;;;;7389676;19;20030;-83
2022/06/12 07:46:17;;;;;;;1.83;1.38;;;;;;;;;;7384355;19;20003;-83
2022/06/12 07:48:44;;;;;;;2.95;1.10;;;;;;;;;;7385304;19;20015;-87
2022/06/12 07:51:12;;;;;;;0.88;0.80;;;;;;;;;;7383348;19;20434;-83
2022/06/12 07:53:39;;;;;;;2.65;1.00;;;;;;;;;;7387939;19;20571;-83
2022/06/12 07:56:06;;;;;;;1.25;1.13;;;;;;;;;;7385277;19;20014;-84
2022/06/12 07:58:31;;;;;;;1.23;1.13;;;;;;;;;;7389619;19;20473;-84
2022/06/12 08:00:59;;;;;;;1.95;0.98;;;;;;;;;;7392895;19;20127;-85
2022/06/12 08:03:26;;;;;;;1.40;1.30;;;;;;;;;;7394408;19;20563;-83
2022/06/12 08:05:52;;;;;;;1.13;1.08;;;;;;;;;;7395451;19;20303;-83
2022/06/12 08:08:17;;;;;;;1.20;1.10;;;;;;;;;;7392386;19;20444;-83
2022/06/12 08:10:43;;;;;;;1.52;1.13;;;;;;;;;;7393424;19;20011;-83
2022/06/12 08:13:19;;;;;;;2.25;1.20;;;;;;;;;;7393937;19;20433;-84
2022/06/12 08:15:48;;;;;;;2.15;1.10;;;;;;;;;;7392898;19;20382;-84
2022/06/12 08:18:14;;;;;;;1.33;1.10;;;;;;;;;;7391910;19;20016;-83
2022/06/12 08:20:50;;;;;;;1.00;0.90;;;;;;;;;;7395416;19;20124;-85
2022/06/12 08:23:27;;;;;;;3.03;1.02;;;;;;;;;;7390404;19;20006;-83
2022/06/12 08:26:00;;;;;;;2.20;1.40;;;;;;;;;;7389419;19;20376;-84
2022/06/12 08:28:29;;;;;;;1.20;1.10;;;;;;;;;;7393577;19;20011;-86
2022/06/12 08:30:55;;;;;;;1.45;1.13;;;;;;;;;;7388232;19;20410;-84
2022/06/12 08:33:21;;;;;;;1.30;1.10;;;;;;;;;;7391531;19;19995;-86
2022/06/12 08:35:47;;;;;;;1.95;1.50;;;;;;;;;;7396738;19;20455;-85
2022/06/12 08:38:13;;;;;;;1.20;1.10;;;;;;;;;;7392351;19;20019;-84
2022/06/12 08:40:52;;;;;;;2.15;1.27;;;;;;;;;;7390994;19;20101;-84
2022/06/12 08:43:45;;;;;;;1.67;1.05;;;;;;;;;;7394728;19;20062;-83
2022/06/12 08:46:21;;;;;;;1.30;1.20;;;;;;;;;;7393703;19;20413;-85
2022/06/12 08:48:57;;;;;;;1.67;1.08;;;;;;;;;;7394514;19;20027;-85
2022/06/12 08:51:48;;;;;;;1.42;1.00;;;;;;;;;;7391384;19;20364;-83
2022/06/12 08:54:20;;;;;;;1.58;1.10;;;;;;;;;;7397224;19;20014;-85
2022/06/12 08:56:55;;;;;;;2.30;1.00;;;;;;;;;;7391776;19;20439;-84
2022/06/12 08:59:34;;;;;;;2.38;1.13;;;;;;;;;;7393922;19;20007;-84
2022/06/12 09:02:01;;;;;;;1.60;1.10;;;;;;;;;;7391534;19;19990;-86
2022/06/12 09:04:26;;;;;;;1.30;1.00;;;;;;;;;;7393540;19;20015;-84
2022/06/12 09:07:05;;;;;;;1.17;1.15;;;;;;;;;;7390979;19;20014;-85
2022/06/12 09:09:40;;;;;;;2.15;1.02;;;;;;;;;;7389539;19;20011;-84
2022/06/12 09:12:30;;;;;;;1.75;1.08;;;;;;;;;;7393312;19;20015;-83
2022/06/12 09:15:05;;;;;;;2.15;1.10;;;;;;;;;;7391151;19;20007;-86
2022/06/12 09:17:48;;;;;;;1.23;1.10;;;;;;;;;;7391789;19;20351;-83
2022/06/12 09:20:28;;;;;;;1.58;1.00;;;;;;;;;;7394758;19;20450;-84
2022/06/12 09:23:22;;;;;;;3.33;1.10;;;;;;;;;;7395503;19;20003;-83
2022/06/12 09:26:00;;;;;;;1.23;0.90;;;;;;;;;;7391632;19;20340;-83
2022/06/12 09:29:04;;;;;;;2.15;1.17;;;;;;;;;;7390011;19;20014;-83
2022/06/12 09:31:47;;;;;;;2.33;1.50;;;;;;;;;;7389588;19;20501;-84
2022/06/12 09:34:25;;;;;;;1.92;1.08;;;;;;;;;;7393090;19;20350;-85
2022/06/12 09:40:44;;;;;;;1.27;0.88;;;;;;;;;;7395690;19;20030;-84
2022/06/12 09:43:29;;;;;;;1.33;0.90;;;;;;;;;;7389604;19;20012;-84
2022/06/12 09:46:38;;;;;;;2.45;0.98;;;;;;;;;;7389632;19;20002;-83
2022/06/12 09:49:22;;;;;;;1.38;0.95;;;;;;;;;;7389986;19;20106;-84
2022/06/12 09:52:00;;;;;;;1.58;0.80;;;;;;;;;;7390584;19;20010;-84
2022/06/12 09:55:02;;;;;;;0.98;0.90;;;;;;;;;;7392190;19;20023;-86
2022/06/12 09:57:34;;;;;;;0.77;0.77;;;;;;;;;;7386691;19;20547;-85
2022/06/12 10:00:03;;;;;;;1.83;0.90;;;;;;;;;;7388717;19;20021;-85
2022/06/12 10:02:46;;;;;;;1.05;0.80;;;;;;;;;;7385798;19;19998;-83
2022/06/12 10:05:24;;;;;;;3.40;0.90;;;;;;;;;;7388130;19;20014;-84
2022/06/12 10:08:04;;;;;;;0.93;0.80;;;;;;;;;;7390871;19;20055;-84
2022/06/12 10:10:41;;;;;;;2.25;1.05;;;;;;;;;;7388220;19;19991;-85
2022/06/12 10:13:12;;;;;;;2.08;0.80;;;;;;;;;;7386774;19;20006;-84
2022/06/12 10:15:43;;;;;;;1.05;0.80;;;;;;;;;;7388539;19;19999;-83
2022/06/12 10:18:16;;;;;;;1.77;0.80;;;;;;;;;;7390661;19;20058;-84
2022/06/12 10:20:52;;;;;;;0.85;0.70;;;;;;;;;;7384412;19;20008;-84
2022/06/12 10:23:18;;;;;;;0.98;0.80;;;;;;;;;;7385965;19;20556;-87
2022/06/12 10:25:51;;;;;;;1.83;0.88;;;;;;;;;;7387972;19;20044;-87
2022/06/12 10:28:25;;;;;;;2.45;0.85;;;;;;;;;;7387759;19;20029;-86
2022/06/12 10:31:23;;;;;;;2.75;0.80;;;;;;;;;;7388107;19;20022;-85
2022/06/12 10:33:52;;;;;;;0.77;0.73;;;;;;;;;;7386082;19;19997;-84
2022/06/12 10:36:32;;;;;;;2.28;0.75;;;;;;;;;;7387163;19;20365;-84
2022/06/12 10:39:22;;;;;;;2.22;0.80;;;;;;;;;;7387542;19;20013;-84
2022/06/12 10:41:55;;;;;;;0.70;0.70;;;;;;;;;;7389800;19;20042;-86
2022/06/12 10:44:38;;;;;;;1.45;0.60;;;;;;;;;;7388882;19;20017;-88
2022/06/12 10:47:28;;;;;;;1.98;0.80;;;;;;;;;;7386257;19;20467;-85
2022/06/12 10:50:06;;;;;;;0.80;0.80;;;;;;;;;;7390981;19;20014;-86
2022/06/12 10:52:34;;;;;;;2.53;0.95;;;;;;;;;;7389826;19;20018;-84
2022/06/12 10:55:19;;;;;;;1.55;0.80;;;;;;;;;;7385389;19;19991;-86
2022/06/12 10:58:04;;;;;;;0.63;0.52;;;;;;;;;;7387435;19;20066;-86
2022/06/12 11:00:36;;;;;;;0.95;0.68;;;;;;;;;;7390640;19;20039;-85
2022/06/12 11:03:33;;;;;;;0.68;0.63;;;;;;;;;;7385608;19;20003;-84
2022/06/12 11:06:29;;;;;;;1.00;0.60;;;;;;;;;;7388289;19;20024;-86
2022/06/12 11:09:14;;;;;;;1.30;0.80;;;;;;;;;;7387031;19;19999;-85
2022/06/12 11:12:04;;;;;;;2.00;0.75;;;;;;;;;;7382859;19;20019;-87
2022/06/12 11:14:42;;;;;;;2.78;1.00;;;;;;;;;;7389401;19;20142;-86
2022/06/12 11:17:45;;;;;;;1.45;0.80;;;;;;;;;;7387381;19;20003;-87
2022/06/12 11:20:26;;;;;;;0.70;0.70;;;;;;;;;;7389224;19;20033;-86
2022/06/12 11:23:20;;;;;;;0.73;0.60;;;;;;;;;;7390721;19;20121;-84
2022/06/12 11:26:24;;;;;;;0.50;0.50;;;;;;;;;;7388119;19;20033;-86
2022/06/12 11:29:11;;;;;;;0.75;0.70;;;;;;;;;;7387383;19;20465;-85
2022/06/12 11:32:06;;;;;;;2.83;0.77;;;;;;;;;;7388871;19;20006;-86
2022/06/12 11:34:50;;;;;;;;;;;;;;;;;;7396944;19;20481;-84
2022/06/12 11:37:36;;;;;;;0.70;0.70;;;;;;;;;;7396632;19;19915;-85
2022/06/12 11:40:38;;;;;;;1.38;0.73;;;;;;;;;;7394297;19;20078;-84
2022/06/12 11:43:19;;;;;;;1.35;0.60;;;;;;;;;;7397954;19;20012;-85
2022/06/12 11:46:17;;;;;;;0.70;0.68;;;;;;;;;;7396312;19;20434;-85
2022/06/12 11:48:59;;;;;;;0.95;0.70;;;;;;;;;;7396611;19;20019;-86
2022/06/12 11:51:34;;;;;;;5.70;0.70;;;;;;;;;;7390849;19;20018;-85
2022/06/12 11:54:05;;;;;;;1.02;0.60;;;;;;;;;;7395349;19;20034;-85
2022/06/12 11:56:46;;;;;;;0.60;0.60;;;;;;;;;;7391524;19;20449;-85
2022/06/12 11:59:22;;;;;;;1.33;0.80;;;;;;;;;;7396309;19;20370;-84
2022/06/12 12:01:54;;;;;;;1.17;0.70;;;;;;;;;;7393669;19;20073;-85
2022/06/12 12:04:31;;;;;;;1.55;0.70;;;;;;;;;;7393398;19;19998;-84
2022/06/12 12:07:12;;;;;;;1.38;0.70;;;;;;;;;;7391167;19;20112;-85
2022/06/12 12:10:01;;;;;;;2.15;0.70;;;;;;;;;;7393184;19;20002;-85
2022/06/12 12:12:54;;;;;;;1.55;0.70;;;;;;;;;;7395241;19;20032;-85
2022/06/12 12:15:34;;;;;;;1.25;0.95;;;;;;;;;;7395134;19;20173;-84
2022/06/12 12:18:03;;;;;;;2.45;0.90;;;;;;;;;;7393305;19;20003;-87
2022/06/12 12:20:39;;;;;;;1.27;0.88;;;;;;;;;;7395297;19;20080;-84
2022/06/12 12:23:09;;;;;;;0.95;0.57;;;;;;;;;;7394273;19;20023;-86
2022/06/12 12:25:47;;;;;;;0.70;0.70;;;;;;;;;;7392247;19;20003;-85
2022/06/12 12:28:41;;;;;;;2.75;0.80;;;;;;;;;;7391868;19;20006;-85
2022/06/12 12:31:15;;;;;;;3.25;0.98;;;;;;;;;;7389976;19;19999;-85
2022/06/12 12:33:42;;;;;;;;;;;;;;;;;;7393750;19;20018;-89
2022/06/12 12:42:32;;;;;;;0.98;0.70;;;;;;;;;;7395700;19;20027;-86
2022/06/12 12:45:16;;;;;;;;;;;;;;;;;;7390223;19;20113;-85
2022/06/12 12:47:42;;;;;;;1.52;0.68;;;;;;;;;;7389588;19;19923;-85
2022/06/12 12:50:46;;;;;;;0.70;0.70;;;;;;;;;;7388250;19;20035;-86
2022/06/12 12:53:35;;;;;;;1.33;0.80;;;;;;;;;;7392834;19;20525;-85
2022/06/12 12:56:26;;;;;;;1.60;0.80;;;;;;;;;;7394286;19;20026;-84
2022/06/12 12:58:58;;;;;;;1.08;0.80;;;;;;;;;;7392507;19;20489;-85
2022/06/12 13:01:28;;;;;;;1.02;0.60;;;;;;;;;;7392758;19;20027;-85
2022/06/12 13:03:58;;;;;;;2.10;0.70;;;;;;;;;;7385993;19;20006;-84
2022/06/12 13:06:42;;;;;;;3.25;0.70;;;;;;;;;;7394796;19;20009;-87
2022/06/12 13:09:22;;;;;;;0.70;0.60;;;;;;;;;;7389772;19;20037;-84
2022/06/12 13:12:10;;;;;;;1.00;0.60;;;;;;;;;;7386133;19;19999;-84
2022/06/12 13:15:16;;;;;;;0.65;0.60;;;;;;;;;;7392345;19;19995;-85
2022/06/12 13:18:16;;;;;;;0.88;0.60;;;;;;;;;;7391363;19;20015;-85
2022/06/12 13:21:24;;;;;;;1.20;0.60;;;;;;;;;;7385647;19;20074;-84
2022/06/12 13:24:31;;;;;;;1.08;0.70;;;;;;;;;;7389666;19;20129;-85
2022/06/12 13:26:57;;;;;;;0.95;0.77;;;;;;;;;;7390792;19;20054;-86
2022/06/12 13:29:25;;;;;;;0.88;0.70;;;;;;;;;;7393777;19;20001;-85
2022/06/12 13:31:54;;;;;;;0.73;0.73;;;;;;;;;;7388901;19;20002;-84
2022/06/12 13:34:30;;;;;;;0.60;0.60;;;;;;;;;;7388640;19;20070;-85
2022/06/12 13:36:57;;;;;;;0.60;0.60;;;;;;;;;;7390408;19;20344;-85
2022/06/12 13:39:28;;;;;;;1.67;0.70;;;;;;;;;;7389662;19;20063;-87
2022/06/12 13:42:01;;;;;;;0.73;0.70;;;;;;;;;;7393202;19;20014;-86
2022/06/12 13:44:35;;;;;;;1.63;0.77;;;;;;;;;;7394075;19;19998;-85
2022/06/12 13:47:18;;;;;;;1.23;0.57;;;;;;;;;;7387601;19;19998;-88
2022/06/12 13:50:12;;;;;;;1.10;0.60;;;;;;;;;;7388164;19;20003;-86
2022/06/12 13:53:03;;;;;;;1.88;0.60;;;;;;;;;;7391749;19;20163;-87
2022/06/12 13:55:47;;;;;;;1.50;0.60;;;;;;;;;;7393319;19;20014;-86
2022/06/12 13:58:40;;;;;;;1.23;0.75;;;;;;;;;;7390523;19;19994;-86
2022/06/12 14:01:34;;;;;;;0.75;0.60;;;;;;;;;;7386819;19;20126;-87
2022/06/12 14:04:21;;;;;;;1.30;0.63;;;;;;;;;;7387504;19;20457;-86
2022/06/12 14:06:47;;;;;;;0.55;0.55;;;;;;;;;;7389228;19;20041;-88
2022/06/12 14:09:17;;;;;;;1.00;0.60;;;;;;;;;;7392640;19;20142;-88
2022/06/12 14:11:43;;;;;;;1.30;0.80;;;;;;;;;;7389099;19;20509;-89
2022/06/12 14:14:29;;;;;;;0.60;0.60;;;;;;;;;;7388824;19;19990;-86
2022/06/12 14:17:02;;;;;;;0.60;0.60;;;;;;;;;;7389121;19;20002;-86
2022/06/12 14:19:32;;;;;;;0.63;0.63;;;;;;;;;;7392689;19;20035;-86
2022/06/12 14:22:00;;;;;;;1.38;0.80;;;;;;;;;;7392465;19;20142;-86
2022/06/12 14:24:33;;;;;;;1.20;0.70;;;;;;;;;;7393356;19;20014;-87
2022/06/12 14:27:19;;;;;;;1.53;1.23;;;;;;;;;;7387437;19;20009;-86
2022/06/12 14:29:45;;;;;;;0.90;0.82;;;;;;;;;;7391826;19;20117;-86
2022/06/12 14:32:10;;;;;;;0.63;0.60;;;;;;;;;;7392016;19;20321;-86
2022/06/12 14:34:39;;;;;;;0.90;0.90;;;;;;;;;;7390836;19;20003;-89
2022/06/12 14:37:05;;;;;;;1.25;0.80;;;;;;;;;;7386075;19;20274;-86
2022/06/12 14:39:37;;;;;;;0.85;0.70;;;;;;;;;;7390369;19;20006;-87
2022/06/12 14:42:09;;;;;;;1.00;0.70;;;;;;;;;;7389597;19;20465;-86
2022/06/12 14:44:36;;;;;;;1.00;0.75;;;;;;;;;;7389489;19;20018;-86
2022/06/12 14:47:15;;;;;;;0.80;0.80;;;;;;;;;;7388332;19;20126;-86
2022/06/12 14:49:41;;;;;;;3.10;1.10;;;;;;;;;;7391974;19;20002;-86
2022/06/12 14:52:08;;;;;;;1.67;1.10;;;;;;;;;;7388502;19;20006;-87
2022/06/12 14:54:54;;;;;;;1.30;0.80;;;;;;;;;;7386122;19;20038;-89
2022/06/12 14:57:23;;;;;;;1.30;0.90;;;;;;;;;;7389959;19;20319;-84
2022/06/12 14:59:49;;;;;;;0.68;0.63;;;;;;;;;;7391529;19;20014;-88
2022/06/12 15:02:21;;;;;;;0.90;0.80;;;;;;;;;;7388368;19;20018;-88
2022/06/12 15:04:47;;;;;;;0.75;0.75;;;;;;;;;;7392910;19;20144;-87
2022/06/12 15:07:14;;;;;;;0.60;0.60;;;;;;;;;;7396089;19;20459;-87
2022/06/12 15:09:39;;;;;;;5.68;1.10;;;;;;;;;;7400599;19;20018;-86
2022/06/12 15:12:05;;;;;;;0.80;0.80;;;;;;;;;;7400255;19;20478;-86
2022/06/12 15:14:32;;;;;;;1.27;0.60;;;;;;;;;;7403225;19;20023;-85
2022/06/12 15:16:58;;;;;;;1.70;0.65;;;;;;;;;;7402069;19;20085;-84
2022/06/12 15:19:24;;;;;;;1.85;0.70;;;;;;;;;;7404997;19;20178;-85
2022/06/12 15:21:49;;;;;;;0.70;0.60;;;;;;;;;;7402140;19;20051;-85
2022/06/12 15:24:21;;;;;;;2.47;1.75;;;;;;;;;;7407376;19;20034;-85
2022/06/12 15:29:49;;;;;;;0.90;0.60;;;;;;;;;;7402487;19;20007;-85
2022/06/12 15:32:27;;;;;;;0.70;0.70;;;;;;;;;;7404355;19;19999;-85
2022/06/12 15:34:54;;;;;;;0.70;0.70;;;;;;;;;;7402564;19;20094;-87
2022/06/12 15:37:19;;;;;;;1.02;0.70;;;;;;;;;;7401733;19;20019;-86
2022/06/12 15:39:44;;;;;;;3.70;0.80;;;;;;;;;;7397781;19;20007;-84
2022/06/12 15:42:13;;;;;;;1.23;1.15;;;;;;;;;;7402457;19;20513;-85
2022/06/12 15:44:39;;;;;;;0.80;0.80;;;;;;;;;;7405682;19;20018;-85
2022/06/12 15:47:04;;;;;;;0.80;0.80;;;;;;;;;;7398979;19;19998;-85
2022/06/12 15:49:32;;;;;;;3.05;0.80;;;;;;;;;;7400300;19;20011;-84